Time;durP1;ratioP1;P1;durP2;ratioP2;P2;SDS_P1;SDS_P2;PMS_P1;PMS_P2;Temp;Humidity;BMP_temperature;BMP_pressure;BME280_temperature;BME280_humidity;BME280_pressure;Samples;Min_cycle;Max_cycle;Signal;HPM_P1;HPM_P2
2022/03/28 00:01:38;;;;;;;15.20;5.83;;;;;;;12.71;31.85;101581.75;5361198;32;34998;-67
2022/03/28 00:04:40;;;;;;;12.03;5.83;;;;;;;11.89;33.43;101579.59;5382030;32;35521;-75
2022/03/28 00:07:43;;;;;;;14.77;5.17;;;;;;;11.68;33.63;101578.34;5358346;32;35184;-78
2022/03/28 00:10:46;;;;;;;12.52;5.47;;;;;;;11.78;33.22;101585.09;5365763;32;33967;-69
2022/03/28 00:13:48;;;;;;;11.20;5.30;;;;;;;11.90;33.05;101582.19;5376333;32;34550;-68
2022/03/28 00:16:50;;;;;;;15.37;6.23;;;;;;;12.13;32.71;101586.00;5356697;32;35487;-74
2022/03/28 00:19:53;;;;;;;16.83;8.30;;;;;;;11.83;33.81;101579.75;5384801;32;35050;-67
2022/03/28 00:22:55;;;;;;;16.00;8.13;;;;;;;13.23;33.08;101572.31;5365293;32;34558;-74
2022/03/28 00:25:59;;;;;;;16.93;7.97;;;;;;;13.10;33.48;101570.94;5364302;32;35176;-68
2022/03/28 00:29:01;;;;;;;;;;;;;;;12.43;34.95;101574.66;5359665;32;34675;-67
2022/03/28 00:32:03;;;;;;;17.90;7.68;;;;;;;12.46;34.98;101574.53;5364754;32;34432;-68
2022/03/28 00:35:06;;;;;;;18.60;8.90;;;;;;;11.58;37.01;101561.88;5374414;32;46197;-67
2022/03/28 00:38:09;;;;;;;19.08;8.02;;;;;;;11.36;37.39;101561.56;5333850;32;34505;-67
2022/03/28 00:41:12;;;;;;;17.70;8.30;;;;;;;11.70;36.74;101557.22;5347890;32;35422;-67
2022/03/28 00:44:14;;;;;;;19.60;8.80;;;;;;;11.67;37.07;101558.19;5355343;32;33571;-68
2022/03/28 00:47:16;;;;;;;19.67;8.90;;;;;;;11.10;38.11;101556.03;5366045;32;34011;-74
2022/03/28 00:50:18;;;;;;;18.83;8.17;;;;;;;11.46;37.38;101558.69;5368473;32;34521;-74
2022/03/28 00:53:20;;;;;;;15.63;7.67;;;;;;;12.30;35.53;101552.16;5369915;32;33723;-67
2022/03/28 00:56:22;;;;;;;15.90;7.50;;;;;;;11.28;36.89;101552.97;5370424;32;35347;-67
2022/03/28 00:59:25;;;;;;;18.70;7.77;;;;;;;11.15;37.10;101548.03;5350953;32;36996;-67
2022/03/28 01:02:27;;;;;;;13.37;7.50;;;;;;;10.80;37.72;101547.91;5353370;32;34769;-67
2022/03/28 01:05:31;;;;;;;18.60;7.67;;;;;;;11.09;36.91;101542.03;5353597;32;34767;-74
2022/03/28 01:08:34;;;;;;;;;;;;;;;11.95;35.30;101541.69;5381467;32;34074;-68
2022/03/28 01:11:36;;;;;;;13.23;7.50;;;;;;;11.87;35.44;101545.41;5356764;32;45232;-68
2022/03/28 01:14:40;;;;;;;17.33;7.03;;;;;;;12.53;34.35;101542.72;5354499;32;35378;-74
2022/03/28 01:21:04;;;;;;;16.70;6.73;;;;;;;12.45;34.04;101533.25;5355727;32;35396;-67
2022/03/28 01:24:06;;;;;;;16.08;6.60;;;;;;;12.28;34.35;101539.91;5367943;32;45949;-74
2022/03/28 01:27:09;;;;;;;15.27;6.90;;;;;;;12.09;34.78;101534.28;5359135;32;35136;-79
2022/03/28 01:30:11;;;;;;;14.93;7.03;;;;;;;11.65;35.55;101525.75;5368908;32;34465;-67
2022/03/28 01:33:14;;;;;;;15.47;6.93;;;;;;;11.65;35.39;101518.69;5366239;32;34999;-67
2022/03/28 01:36:23;;;;;;;17.17;7.32;;;;;;;11.10;36.56;101524.47;5345968;32;34797;-74
2022/03/28 01:39:26;;;;;;;19.37;7.10;;;;;;;10.68;37.19;101521.87;5347320;32;34594;-72
2022/03/28 01:42:28;;;;;;;13.10;6.50;;;;;;;10.86;37.10;101502.19;5360901;32;35458;-67
2022/03/28 01:45:30;;;;;;;14.13;6.40;;;;;;;10.27;38.21;101514.84;5377124;32;34815;-68
2022/03/28 01:48:32;;;;;;;13.17;6.97;;;;;;;10.33;38.09;101508.63;5366141;32;34924;-67
2022/03/28 01:51:35;;;;;;;12.30;6.03;;;;;;;10.38;38.07;101509.41;5378002;32;44546;-67
2022/03/28 01:54:37;;;;;;;15.53;6.93;;;;;;;10.32;38.14;101506.88;5376210;32;35752;-69
2022/03/28 01:57:40;;;;;;;17.87;7.03;;;;;;;10.51;37.51;101510.88;5339798;32;36389;-67
2022/03/28 02:00:43;;;;;;;14.02;6.78;;;;;;;11.32;35.93;101496.72;5356643;32;34572;-67
2022/03/28 02:03:45;;;;;;;14.60;6.60;;;;;;;11.64;34.90;101490.63;5365354;32;34482;-74
2022/03/28 02:06:47;;;;;;;14.83;7.10;;;;;;;11.75;34.92;101497.41;5358737;32;34500;-79
2022/03/28 02:09:49;;;;;;;14.63;6.80;;;;;;;11.60;35.10;101488.16;5346068;32;34686;-67
2022/03/28 02:12:52;;;;;;;15.80;6.57;;;;;;;11.68;34.80;101496.72;5345497;32;35009;-68
2022/03/28 02:15:54;;;;;;;13.45;6.70;;;;;;;10.37;36.99;101499.75;5362612;32;35882;-67
2022/03/28 02:18:57;;;;;;;14.20;6.43;;;;;;;11.00;36.09;101499.25;5355125;32;34036;-68
2022/03/28 02:21:59;;;;;;;15.43;6.68;;;;;;;11.14;35.43;101491.91;5358416;32;34585;-68
2022/03/28 02:25:03;;;;;;;16.33;6.73;;;;;;;10.21;36.83;101502.66;5348737;32;34636;-73
2022/03/28 02:28:05;;;;;;;13.13;6.33;;;;;;;10.69;36.18;101499.06;5359198;32;46296;-74
2022/03/28 02:31:10;;;;;;;17.90;7.20;;;;;;;9.67;38.21;101501.97;5365799;32;34968;-67
2022/03/28 02:34:12;;;;;;;15.47;7.00;;;;;;;9.61;38.58;101502.06;5358605;32;35559;-69
2022/03/28 02:37:15;;;;;;;14.03;6.17;;;;;;;9.41;38.90;101503.28;5373690;32;34421;-68
2022/03/28 02:40:17;;;;;;;18.03;6.60;;;;;;;9.89;37.87;101495.41;5336482;32;35860;-68
2022/03/28 02:43:21;;;;;;;19.03;6.60;;;;;;;10.25;37.32;101493.88;5372016;32;36099;-68
2022/03/28 02:46:24;;;;;;;13.37;6.30;;;;;;;11.16;34.08;101487.47;5360365;32;34770;-68
2022/03/28 02:49:26;;;;;;;10.50;5.53;;;;;;;10.31;36.01;101498.16;5372023;32;34409;-68
2022/03/28 02:52:28;;;;;;;12.60;5.70;;;;;;;10.34;35.26;101499.84;5359234;32;35169;-66
2022/03/28 02:55:30;;;;;;;15.37;5.67;;;;;;;11.06;33.43;101496.47;5358515;32;34115;-75
2022/03/28 02:58:32;;;;;;;12.23;5.47;;;;;;;10.97;33.74;101494.09;5369109;32;36922;-74
2022/03/28 03:01:35;;;;;;;13.07;5.53;;;;;;;10.69;33.68;101494.72;5357467;32;44697;-67
2022/03/28 03:04:38;;;;;;;11.67;5.70;;;;;;;10.46;34.21;101491.69;5374627;32;34468;-66
2022/03/28 03:07:40;;;;;;;13.80;6.28;;;;;;;10.07;34.54;101490.72;5359663;32;35266;-68
2022/03/28 03:10:43;;;;;;;11.30;5.40;;;;;;;9.88;35.27;101493.69;5372700;32;34069;-74
2022/03/28 03:13:46;;;;;;;11.43;5.60;;;;;;;9.63;36.00;101493.25;5363010;32;35169;-68
2022/03/28 03:16:48;;;;;;;12.98;6.10;;;;;;;9.16;36.91;101501.94;5355001;32;34556;-68
2022/03/28 03:19:50;;;;;;;13.97;5.73;;;;;;;9.23;36.72;101477.31;5373559;32;34714;-74
2022/03/28 03:22:52;;;;;;;16.47;5.90;;;;;;;9.67;35.68;101487.06;5347517;32;35069;-74
2022/03/28 03:25:55;;;;;;;14.77;6.40;;;;;;;9.54;35.93;101488.19;5376627;32;36612;-68
2022/03/28 03:28:58;;;;;;;16.73;6.80;;;;;;;10.34;35.12;101479.66;5361540;32;34536;-67
2022/03/28 03:32:00;;;;;;;14.87;6.20;;;;;;;9.73;36.88;101483.47;5372230;32;34975;-67
2022/03/28 03:35:04;;;;;;;15.37;6.23;;;;;;;10.26;35.07;101478.97;5365314;32;34781;-67
2022/03/28 03:38:06;;;;;;;13.05;5.32;;;;;;;9.87;34.54;101473.56;5336698;32;45171;-75
2022/03/28 03:41:08;;;;;;;12.10;4.67;;;;;;;11.01;32.23;101474.66;5360964;32;35238;-67
2022/03/28 03:44:11;;;;;;;13.53;5.60;;;;;;;11.01;31.79;101464.16;5367763;32;34444;-77
2022/03/28 03:47:13;;;;;;;12.03;5.33;;;;;;;10.95;32.25;101466.94;5374015;32;34826;-74
2022/03/28 03:50:15;;;;;;;13.67;5.20;;;;;;;9.83;34.57;101469.25;5348049;32;34385;-74
2022/03/28 03:53:19;;;;;;;49.80;7.40;;;;;;;9.72;34.77;101465.97;5370005;32;35147;-68
2022/03/28 03:56:21;;;;;;;12.73;5.83;;;;;;;9.05;36.30;101467.13;5368338;32;34487;-68
2022/03/28 03:59:23;;;;;;;23.80;11.70;;;;;;;9.97;34.98;101467.22;5353431;32;34706;-75
2022/03/28 04:02:26;;;;;;;16.10;7.17;;;;;;;9.36;36.20;101462.25;5371730;32;35026;-68
2022/03/28 04:05:29;;;;;;;16.40;7.10;;;;;;;9.30;36.63;101462.34;5361883;32;34857;-67
2022/03/28 04:08:31;;;;;;;13.25;6.43;;;;;;;9.53;36.24;101465.44;5376153;32;35366;-75
2022/03/28 04:11:33;;;;;;;24.80;8.40;;;;;;;9.47;36.68;101465.56;5347692;32;37552;-73
2022/03/28 04:14:36;;;;;;;15.93;5.70;;;;;;;9.32;36.94;101471.06;5372928;32;33990;-73
2022/03/28 04:17:39;;;;;;;16.50;7.27;;;;;;;9.48;36.14;101464.66;5363069;32;35877;-68
2022/03/28 04:20:42;;;;;;;;;;;;;;;10.11;34.30;101463.47;5360388;32;34972;-79
2022/03/28 04:23:44;;;;;;;18.37;8.47;;;;;;;9.46;36.08;101469.91;5376189;32;35570;-70
2022/03/28 04:26:46;;;;;;;28.53;11.47;;;;;;;9.29;37.40;101468.50;5334398;32;35018;-73
2022/03/28 04:29:48;;;;;;;21.60;8.97;;;;;;;9.15;38.20;101474.84;5381272;32;34964;-74
2022/03/28 04:32:51;;;;;;;26.33;7.63;;;;;;;9.08;38.32;101477.56;5361134;32;34654;-67
2022/03/28 04:35:53;;;;;;;16.87;7.70;;;;;;;9.16;38.31;101463.44;5352646;32;34048;-67
2022/03/28 04:38:55;;;;;;;19.20;7.43;;;;;;;9.53;37.94;101467.19;5353857;32;34706;-68
2022/03/28 04:41:57;;;;;;;17.03;7.23;;;;;;;10.25;36.18;101461.47;5353512;32;35050;-67
2022/03/28 04:44:59;;;;;;;13.87;6.87;;;;;;;10.87;32.78;101455.72;5376559;32;34587;-68
2022/03/28 04:48:03;;;;;;;23.70;8.23;;;;;;;10.12;34.29;101455.56;5352937;32;34362;-78
2022/03/28 04:51:05;;;;;;;34.88;8.73;;;;;;;8.93;38.26;101474.28;5373976;32;46174;-73
2022/03/28 04:54:08;;;;;;;21.77;10.40;;;;;;;8.90;38.37;101457.75;5362753;32;34354;-67
2022/03/28 04:57:10;;;;;;;24.80;9.03;;;;;;;8.68;39.38;101462.41;5361640;32;34461;-67
2022/03/28 05:00:13;;;;;;;25.53;8.53;;;;;;;8.59;40.22;101465.19;5358562;32;35281;-68
2022/03/28 05:03:15;;;;;;;26.77;10.13;;;;;;;8.52;40.51;101463.53;5359056;32;34678;-67
2022/03/28 05:06:17;;;;;;;23.90;9.70;;;;;;;8.57;40.37;101469.59;5372966;32;35275;-74
2022/03/28 05:09:19;;;;;;;24.60;8.93;;;;;;;8.86;40.00;101464.78;5359526;32;34073;-80
2022/03/28 05:12:25;;;;;;;19.80;8.53;;;;;;;8.50;40.54;101471.41;5358328;32;34557;-75
2022/03/28 05:15:27;;;;;;;25.07;9.23;;;;;;;9.12;39.12;101461.75;5356017;32;35009;-74
2022/03/28 05:18:29;;;;;;;24.77;9.53;;;;;;;9.39;38.26;101462.19;5355071;32;34810;-74
2022/03/28 05:21:31;;;;;;;49.17;11.97;;;;;;;8.88;39.53;101465.59;5373279;32;34784;-74
2022/03/28 05:24:34;;;;;;;20.43;9.30;;;;;;;9.04;39.05;101463.63;5359023;32;46892;-70
2022/03/28 05:27:46;;;;;;;23.10;9.80;;;;;;;9.64;38.00;101465.25;5370832;32;34172;-74
2022/03/28 05:30:48;;;;;;;24.10;9.53;;;;;;;11.20;34.57;101449.66;5358957;32;34623;-74
2022/03/28 05:33:51;;;;;;;22.13;8.77;;;;;;;11.29;34.20;101464.37;5372097;32;34616;-68
2022/03/28 05:36:53;;;;;;;22.10;9.30;;;;;;;11.55;33.18;101455.81;5360031;32;34713;-68
2022/03/28 05:39:55;;;;;;;25.07;9.80;;;;;;;10.72;35.25;101470.97;5335300;32;35756;-73
2022/03/28 05:42:57;;;;;;;24.07;8.37;;;;;;;10.98;34.70;101472.12;5371574;32;35326;-67
2022/03/28 05:45:59;;;;;;;19.97;8.97;;;;;;;13.26;30.56;101448.97;5355663;32;34121;-68
2022/03/28 05:49:01;;;;;;;19.03;8.50;;;;;;;13.81;29.81;101455.00;5376457;32;35382;-67
2022/03/28 05:52:04;;;;;;;20.43;8.73;;;;;;;14.07;29.20;101451.44;5361592;32;33895;-62
2022/03/28 05:55:06;;;;;;;21.90;9.07;;;;;;;15.04;27.40;101445.06;5372328;32;44307;-70
2022/03/28 05:58:09;;;;;;;19.90;9.25;;;;;;;15.44;26.62;101450.41;5348606;32;34186;-71
2022/03/28 06:01:12;;;;;;;25.05;11.77;;;;;;;16.00;25.86;101448.06;5350329;32;34188;-78
2022/03/28 06:04:14;;;;;;;24.58;10.23;;;;;;;13.49;29.48;101452.62;5350649;32;33454;-70
2022/03/28 06:07:17;;;;;;;28.08;9.75;;;;;;;14.69;27.86;101444.72;5351933;32;34688;-71
2022/03/28 06:10:19;;;;;;;31.73;9.75;;;;;;;14.04;28.81;101448.91;5365850;32;34117;-75
2022/03/28 06:13:22;;;;;;;25.57;11.60;;;;;;;14.84;27.52;101441.44;5356297;32;34179;-66
2022/03/28 06:16:25;;;;;;;18.87;7.40;;;;;;;15.03;27.26;101440.72;5364224;32;33989;-70
2022/03/28 06:19:27;;;;;;;19.15;7.30;;;;;;;17.13;22.03;101433.00;5361389;32;32593;-71
2022/03/28 06:22:29;;;;;;;20.12;7.12;;;;;;;15.07;23.81;101429.94;5359580;32;35498;-69
2022/03/28 06:25:32;;;;;;;27.08;7.47;;;;;;;17.32;20.48;101427.59;5367088;32;34126;-71
2022/03/28 06:28:34;;;;;;;17.12;6.68;;;;;;;15.17;22.19;101439.22;5358999;32;44615;-67
2022/03/28 06:31:43;;;;;;;16.70;6.60;;;;;;;16.10;21.01;101431.69;5367315;32;33923;-65
2022/03/28 06:34:52;;;;;;;16.02;7.50;;;;;;;17.29;19.56;101430.41;5360947;32;35167;-67
2022/03/28 06:37:55;;;;;;;24.52;7.93;;;;;;;17.63;18.76;101424.22;5356004;32;34201;-73
2022/03/28 06:40:57;;;;;;;;;;;;;;;17.99;18.53;101428.56;5361595;32;34750;-67
2022/03/28 06:43:59;;;;;;;20.20;7.72;;;;;;;16.59;19.83;101426.72;5359969;32;34236;-72
2022/03/28 06:47:02;;;;;;;14.27;6.97;;;;;;;17.98;18.69;101421.53;5347819;32;35442;-73
2022/03/28 06:50:06;;;;;;;19.02;7.85;;;;;;;16.94;19.32;101427.72;5361004;32;45007;-64
2022/03/28 06:53:08;;;;;;;17.85;8.13;;;;;;;18.12;18.26;101414.53;5366915;32;35543;-71
2022/03/28 06:56:10;;;;;;;18.02;7.85;;;;;;;17.55;18.88;101427.28;5356559;32;35080;-73
2022/03/28 06:59:13;;;;;;;18.77;8.20;;;;;;;15.52;21.17;101438.62;5348986;32;35047;-71
2022/03/28 07:02:15;;;;;;;20.42;8.73;;;;;;;16.31;20.27;101423.66;5356666;32;34007;-65
2022/03/28 07:05:17;;;;;;;16.42;7.85;;;;;;;17.33;19.09;101424.00;5346977;32;35686;-66
2022/03/28 07:08:20;;;;;;;20.50;8.85;;;;;;;17.37;19.23;101422.03;5358692;32;34414;-72
2022/03/28 07:11:22;;;;;;;22.77;8.20;;;;;;;16.04;20.84;101428.44;5360453;32;34860;-74
2022/03/28 07:14:24;;;;;;;21.25;10.38;;;;;;;17.74;19.29;101411.25;5369508;32;34677;-72
2022/03/28 07:17:26;;;;;;;18.67;8.90;;;;;;;17.85;19.35;101416.03;5359583;32;35135;-67
2022/03/28 07:20:31;;;;;;;22.15;7.72;;;;;;;17.38;19.19;101411.31;5355222;32;34591;-64
2022/03/28 07:23:33;;;;;;;20.15;8.52;;;;;;;17.75;18.94;101405.00;5372696;32;35418;-74
2022/03/28 07:26:36;;;;;;;20.45;8.75;;;;;;;17.77;18.79;101405.75;5364272;32;44627;-70
2022/03/28 07:29:39;;;;;;;18.55;7.65;;;;;;;18.00;18.65;101399.22;5364898;32;34842;-69
2022/03/28 07:32:41;;;;;;;15.68;6.72;;;;;;;18.58;17.11;101395.16;5363955;32;34485;-67
2022/03/28 07:35:45;;;;;;;21.45;8.07;;;;;;;20.77;14.79;101383.53;5368870;32;33930;-77
2022/03/28 07:38:47;;;;;;;24.80;8.20;;;;;;;19.13;16.21;101400.88;5334587;32;35516;-73
2022/03/28 07:41:50;;;;;;;22.55;8.23;;;;;;;19.13;16.26;101392.87;5356676;32;34029;-73
2022/03/28 07:44:56;;;;;;;17.55;7.05;;;;;;;20.57;14.99;101385.81;5354597;32;34015;-71
2022/03/28 07:47:59;;;;;;;14.52;5.80;;;;;;;19.85;15.19;101390.34;5360353;32;35362;-72
2022/03/28 07:51:01;;;;;;;15.95;5.95;;;;;;;21.38;13.89;101386.59;5373817;32;34379;-68
2022/03/28 07:54:04;;;;;;;13.00;5.22;;;;;;;21.39;13.20;101382.97;5367242;32;34192;-69
2022/03/28 07:57:07;;;;;;;21.55;7.20;;;;;;;19.01;15.00;101387.41;5357142;32;44305;-71
2022/03/28 08:00:12;;;;;;;14.50;5.70;;;;;;;18.69;15.64;101392.78;5363517;32;34194;-68
2022/03/28 08:03:30;;;;;;;17.10;5.75;;;;;;;21.78;13.19;101378.50;5349604;32;34048;-74
2022/03/28 08:06:33;;;;;;;20.55;6.72;;;;;;;21.32;14.05;101382.53;5372100;32;35406;-74
2022/03/28 08:09:39;;;;;;;14.45;6.10;;;;;;;18.87;16.01;101393.50;5363207;32;44566;-67
2022/03/28 08:12:43;;;;;;;15.82;6.68;;;;;;;19.78;15.31;101381.88;5356787;32;34196;-70
2022/03/28 08:15:46;;;;;;;15.07;6.57;;;;;;;20.85;14.59;101376.81;5363552;32;33986;-65
2022/03/28 08:18:48;;;;;;;;;;;;;;;19.53;15.85;101374.47;5359189;32;34519;-67
2022/03/28 08:21:50;;;;;;;18.52;6.25;;;;;;;20.13;15.60;101366.31;5368829;32;34229;-67
2022/03/28 08:24:53;;;;;;;16.62;6.37;;;;;;;19.18;17.24;101369.44;5354749;32;34216;-67
2022/03/28 08:27:55;;;;;;;13.25;6.28;;;;;;;22.67;13.99;101357.72;5375519;32;35733;-67
2022/03/28 08:30:57;;;;;;;18.67;6.28;;;;;;;22.33;14.38;101358.47;5353109;32;34106;-68
2022/03/28 08:34:00;;;;;;;15.52;6.85;;;;;;;22.46;14.55;101347.72;5373478;32;33983;-68
2022/03/28 08:37:02;;;;;;;17.40;7.20;;;;;;;22.57;14.23;101351.31;5361008;32;34589;-70
2022/03/28 08:40:06;;;;;;;14.70;5.90;;;;;;;20.73;16.13;101346.44;5334299;32;44804;-71
2022/03/28 08:43:08;;;;;;;16.15;5.95;;;;;;;23.29;14.55;101340.53;5371149;32;34003;-72
2022/03/28 08:46:11;;;;;;;16.05;6.15;;;;;;;22.77;15.12;101338.25;5360771;32;34422;-68
2022/03/28 08:49:14;;;;;;;16.15;6.60;;;;;;;22.31;16.43;101333.66;5373303;32;34334;-68
2022/03/28 08:52:16;;;;;;;17.10;7.45;;;;;;;22.38;16.30;101334.91;5364876;32;34189;-78
2022/03/28 08:55:22;;;;;;;22.60;8.02;;;;;;;21.77;17.09;101334.81;5371581;32;35163;-71
2022/03/28 08:58:25;;;;;;;18.73;6.90;;;;;;;21.87;17.49;101324.31;5366981;32;34170;-76
2022/03/28 09:01:27;;;;;;;17.02;6.62;;;;;;;23.47;15.78;101330.19;5361030;32;35531;-73
2022/03/28 09:04:29;;;;;;;;;;;;;;;22.38;16.88;101324.19;5374568;32;34076;-69
2022/03/28 09:07:31;;;;;;;14.15;6.72;;;;;;;21.26;17.97;101325.94;5362645;32;34273;-71
2022/03/28 09:10:35;;;;;;;22.23;7.60;;;;;;;20.78;18.96;101320.28;5376925;32;44318;-70
2022/03/28 09:13:44;;;;;;;13.57;6.87;;;;;;;21.65;18.25;101324.13;5360958;32;34120;-75
2022/03/28 09:17:04;;;;;;;21.25;7.93;;;;;;;21.52;17.96;101313.44;5363360;32;35344;-71
2022/03/28 09:20:07;;;;;;;15.50;6.80;;;;;;;21.29;18.62;101307.03;5372713;32;44517;-70
2022/03/28 09:23:29;;;;;;;18.37;7.62;;;;;;;23.70;16.41;101306.94;5364587;32;33961;-74
2022/03/28 09:26:31;;;;;;;20.70;8.48;;;;;;;22.35;18.12;101303.00;5376040;32;34298;-68
2022/03/28 09:29:33;;;;;;;;;;;;;;;23.41;17.66;101299.34;5362494;32;34695;-71
2022/03/28 09:32:49;;;;;;;19.60;7.50;;;;;;;23.36;17.74;101296.16;5357879;32;44493;-76
2022/03/28 09:35:51;;;;;;;30.52;8.00;;;;;;;24.18;17.14;101283.31;5371325;32;34652;-70
2022/03/28 09:38:55;;;;;;;21.95;7.20;;;;;;;25.16;16.01;101285.00;5350214;32;34119;-72
2022/03/28 09:42:00;;;;;;;19.77;6.90;;;;;;;23.42;17.72;101284.09;5352173;32;35925;-73
2022/03/28 09:45:18;;;;;;;25.35;7.37;;;;;;;25.27;16.25;101276.88;5359954;32;34038;-68
2022/03/28 09:48:24;;;;;;;13.32;6.18;;;;;;;23.00;18.21;101278.44;5356116;32;34070;-74
2022/03/28 09:51:31;;;;;;;17.35;6.87;;;;;;;24.69;16.86;101266.56;5345801;32;35969;-69
2022/03/28 09:54:52;;;;;;;23.17;6.97;;;;;;;24.21;17.51;101252.66;5363270;32;44600;-68
2022/03/28 09:57:55;;;;;;;15.05;7.20;;;;;;;24.46;17.13;101254.19;5359168;32;35271;-77
2022/03/28 10:01:01;;;;;;;13.62;6.72;;;;;;;24.24;17.56;101252.44;5355574;32;35719;-68
2022/03/28 10:04:08;;;;;;;15.73;6.65;;;;;;;25.27;16.76;101244.59;5368529;32;34026;-70
2022/03/28 10:07:11;;;;;;;17.23;7.12;;;;;;;27.61;14.90;101231.88;5356575;32;44396;-71
2022/03/28 10:10:16;;;;;;;15.15;6.62;;;;;;;27.77;14.78;101229.41;5355144;32;35884;-69
2022/03/28 10:13:18;;;;;;;14.85;6.53;;;;;;;25.24;17.17;101231.38;5364417;32;34301;-70
2022/03/28 10:16:21;;;;;;;15.13;6.55;;;;;;;25.82;16.79;101219.03;5351619;32;35760;-64
2022/03/28 10:19:23;;;;;;;14.40;6.93;;;;;;;26.62;16.22;101212.56;5362980;32;34327;-68
2022/03/28 10:22:29;;;;;;;12.30;6.22;;;;;;;28.29;14.74;101204.44;5363164;32;35830;-69
2022/03/28 10:25:31;;;;;;;19.33;7.10;;;;;;;28.59;14.45;101205.88;5365949;32;35287;-89
2022/03/28 10:28:34;;;;;;;15.35;6.37;;;;;;;24.87;18.12;101206.84;5366531;32;45587;-71
2022/03/28 10:31:51;;;;;;;11.07;5.70;;;;;;;27.58;15.82;101182.75;5359467;32;34036;-67
2022/03/28 10:35:07;;;;;;;12.55;5.82;;;;;;;28.97;14.38;101174.06;5364247;32;34305;-66
2022/03/28 10:38:16;;;;;;;13.77;5.70;;;;;;;27.52;15.87;101174.25;5328732;32;44150;-64
2022/03/28 10:41:20;;;;;;;11.23;5.68;;;;;;;28.87;14.74;101171.44;5352621;32;34223;-66
2022/03/28 10:44:22;;;;;;;17.62;7.07;;;;;;;27.45;15.90;101164.19;5356755;32;34376;-65
2022/03/28 10:47:43;;;;;;;12.35;5.70;;;;;;;25.79;17.60;101165.47;5345580;32;33688;-66
2022/03/28 10:50:50;;;;;;;12.02;5.97;;;;;;;27.23;16.56;101152.78;5367708;32;35288;-66
2022/03/28 10:53:53;;;;;;;11.45;5.43;;;;;;;27.24;16.66;101134.75;5363199;32;34046;-67
2022/03/28 10:56:57;;;;;;;10.32;5.65;;;;;;;28.82;15.26;101131.34;5365457;32;35383;-68
2022/03/28 11:00:02;;;;;;;13.55;5.55;;;;;;;26.77;17.33;101125.84;5363006;32;35256;-61
2022/03/28 11:03:05;;;;;;;11.75;6.03;;;;;;;27.94;16.19;101126.91;5360387;32;44830;-65
2022/03/28 11:06:07;;;;;;;13.60;5.62;;;;;;;26.32;17.80;101119.22;5368529;32;35536;-64
2022/03/28 11:09:50;;;;;;;12.60;6.10;;;;;;;25.13;19.33;101124.75;5354574;32;35289;-63
2022/03/28 11:13:13;;;;;;;11.52;6.12;;;;;;;23.43;21.39;101112.28;5364194;32;34301;-64
2022/03/28 11:16:19;;;;;;;14.52;5.72;;;;;;;26.38;18.41;101097.09;5359565;32;35535;-64
2022/03/28 11:19:32;;;;;;;11.10;5.15;;;;;;;26.77;17.87;101090.78;5362343;32;35433;-64
2022/03/28 11:23:06;;;;;;;9.30;5.15;;;;;;;25.05;19.62;101092.28;5366176;32;44796;-70
2022/03/28 11:26:10;;;;;;;12.15;5.45;;;;;;;25.53;19.45;101078.13;5362628;32;44221;-71
2022/03/28 11:29:19;;;;;;;11.57;6.00;;;;;;;27.15;17.66;101060.94;5368020;32;34403;-65
2022/03/28 11:32:21;;;;;;;11.77;5.80;;;;;;;24.99;19.73;101064.09;5366138;32;34458;-66
2022/03/28 11:35:23;;;;;;;;;;;;;;;26.58;18.08;101052.09;5360605;32;37207;-70
2022/03/28 11:38:30;;;;;;;13.03;5.40;;;;;;;27.18;17.79;101040.94;5353707;32;34431;-72
2022/03/28 11:41:34;;;;;;;11.75;6.00;;;;;;;27.93;16.89;101034.22;5354186;32;34130;-67
2022/03/28 11:44:36;;;;;;;11.18;5.55;;;;;;;26.95;18.22;101027.81;5363140;32;44365;-69
2022/03/28 11:47:39;;;;;;;;;;;;;;;30.57;14.64;101012.09;5342064;32;34117;-75
2022/03/28 11:50:42;;;;;;;13.35;5.47;;;;;;;29.30;15.75;101010.75;5364980;32;34005;-67
2022/03/28 11:53:44;;;;;;;14.75;5.65;;;;;;;26.55;18.52;101001.19;5375813;32;35603;-68
2022/03/28 12:00:18;;;;;;;11.38;5.65;;;;;;;30.68;14.93;100977.31;5378282;32;44557;-73
2022/03/28 12:03:20;;;;;;;11.35;4.65;;;;;;;28.50;16.53;100979.72;5362420;32;32781;-71
2022/03/28 12:06:27;;;;;;;12.25;4.78;;;;;;;30.95;14.81;100953.41;5367256;32;35802;-71
2022/03/28 12:09:29;;;;;;;11.63;4.93;;;;;;;30.09;15.65;100962.37;5371085;32;34248;-74
2022/03/28 12:12:31;;;;;;;;;;;;;;;29.06;16.53;100957.47;5348419;32;34726;-65
2022/03/28 12:15:39;;;;;;;11.12;5.03;;;;;;;27.64;18.04;100939.97;5372738;32;44829;-72
2022/03/28 12:18:42;;;;;;;11.68;4.75;;;;;;;27.19;18.55;100940.09;5361873;32;34116;-78
2022/03/28 12:21:44;;;;;;;8.82;4.97;;;;;;;30.62;15.62;100921.00;5370960;32;34166;-67
2022/03/28 12:24:51;;;;;;;13.32;5.75;;;;;;;28.07;17.64;100922.88;5363742;32;34155;-68
2022/03/28 12:27:59;;;;;;;11.98;5.30;;;;;;;29.53;16.11;100915.37;5363335;32;35548;-64
2022/03/28 12:31:07;;;;;;;12.73;5.53;;;;;;;30.93;14.76;100898.50;5376568;32;34323;-69
2022/03/28 12:34:09;;;;;;;13.38;6.28;;;;;;;33.74;12.63;100893.63;5362614;32;44502;-67
2022/03/28 12:37:15;;;;;;;14.75;5.53;;;;;;;31.81;14.07;100890.63;5368548;32;35913;-67
2022/03/28 12:40:25;;;;;;;12.90;5.97;;;;;;;32.16;13.48;100888.19;5339099;32;35976;-70
2022/03/28 12:43:29;;;;;;;11.63;5.95;;;;;;;34.62;11.71;100872.09;5357063;32;34086;-62
2022/03/28 12:46:31;;;;;;;14.52;6.20;;;;;;;32.27;13.42;100870.56;5362465;32;35294;-64
2022/03/28 12:49:43;;;;;;;15.25;6.35;;;;;;;31.57;14.17;100860.13;5359703;32;44514;-70
2022/03/28 12:52:46;;;;;;;12.75;6.15;;;;;;;29.36;16.22;100857.66;5371591;32;36737;-67
2022/03/28 12:55:48;;;;;;;11.73;5.80;;;;;;;32.02;13.94;100851.00;5355618;32;35485;-69
2022/03/28 12:58:56;;;;;;;13.13;6.35;;;;;;;31.31;14.39;100849.69;5370135;32;35938;-64
2022/03/28 13:02:24;;;;;;;11.50;6.28;;;;;;;29.97;15.48;100841.81;5360758;32;34737;-65
2022/03/28 13:05:28;;;;;;;13.25;5.60;;;;;;;30.70;15.15;100828.75;5358342;32;34251;-64
2022/03/28 13:08:38;;;;;;;19.92;8.20;;;;;;;32.56;13.04;100817.97;5362617;32;34374;-67
2022/03/28 13:11:40;;;;;;;9.98;5.60;;;;;;;32.06;13.47;100806.91;5360607;32;44382;-67
2022/03/28 13:14:47;;;;;;;11.52;5.75;;;;;;;34.22;11.95;100793.66;5360413;32;34085;-66
2022/03/28 13:18:15;;;;;;;10.05;5.22;;;;;;;34.99;11.32;100789.66;5353140;32;35173;-68
2022/03/28 13:21:17;;;;;;;9.73;5.15;;;;;;;36.91;9.87;100792.78;5360722;32;34555;-64
2022/03/28 13:24:19;;;;;;;13.85;5.95;;;;;;;34.42;11.46;100788.28;5365132;32;185424;-64
2022/03/28 13:30:54;;;;;;;12.23;5.75;;;;;;;28.37;16.68;100784.69;5369009;32;34212;-70
2022/03/28 13:33:56;;;;;;;12.23;5.90;;;;;;;26.43;19.02;100773.31;5365163;32;34317;-69
2022/03/28 13:37:05;;;;;;;11.20;5.53;;;;;;;26.62;18.81;100775.00;5358992;32;35539;-79
2022/03/28 13:40:08;;;;;;;14.65;5.35;;;;;;;25.22;20.51;100768.84;5351886;32;44678;-68
2022/03/28 13:43:11;;;;;;;9.32;5.28;;;;;;;23.85;22.30;100760.81;5360832;32;34729;-68
2022/03/28 13:46:17;;;;;;;11.93;5.47;;;;;;;24.32;21.64;100753.00;5362772;32;34197;-71
2022/03/28 13:49:19;;;;;;;11.23;6.00;;;;;;;23.87;22.35;100744.56;5361187;32;35794;-69
2022/03/28 13:52:21;;;;;;;14.35;6.87;;;;;;;23.58;22.75;100739.94;5366768;32;34138;-73
2022/03/28 13:55:24;;;;;;;10.93;5.80;;;;;;;23.07;23.60;100742.63;5367717;32;34141;-72
2022/03/28 13:58:27;;;;;;;11.73;6.05;;;;;;;23.93;22.54;100728.78;5346864;32;34079;-70
2022/03/28 14:01:29;;;;;;;12.25;5.47;;;;;;;24.09;22.41;100724.69;5367126;32;34042;-77
2022/03/28 14:04:32;;;;;;;11.32;5.70;;;;;;;24.14;22.27;100722.44;5361484;32;35775;-79
2022/03/28 14:07:35;;;;;;;10.15;5.78;;;;;;;24.17;22.19;100717.66;5372283;32;44404;-75
2022/03/28 14:10:37;;;;;;;12.68;6.05;;;;;;;23.95;22.52;100708.00;5342284;32;34057;-74
2022/03/28 14:13:40;;;;;;;12.27;5.35;;;;;;;23.44;23.12;100695.56;5348254;32;35140;-74
2022/03/28 14:16:43;;;;;;;10.20;5.95;;;;;;;23.99;22.38;100700.53;5366187;32;35185;-75
2022/03/28 14:19:46;;;;;;;15.20;6.15;;;;;;;23.41;23.04;100684.22;5355718;32;35557;-73
2022/03/28 14:22:49;;;;;;;14.02;6.25;;;;;;;23.22;23.27;100676.97;5366856;32;34713;-75